createdAt,value
2022-09-12T00:01:46.873Z,28.48
2022-09-12T00:04:34.486Z,29.48
2022-09-12T00:07:19.903Z,28.25
2022-09-12T00:10:05.895Z,27.92
2022-09-12T00:12:51.715Z,28.92
2022-09-12T00:15:42.631Z,28.02
2022-09-12T00:18:28.376Z,27.13
2022-09-12T00:21:15.103Z,27.23
2022-09-12T00:24:00.663Z,26.83
2022-09-12T00:26:49.180Z,25.90
2022-09-12T00:29:34.857Z,27.13
2022-09-12T00:32:20.995Z,25.80
2022-09-12T00:35:06.891Z,26.67
2022-09-12T00:37:52.190Z,25.63
2022-09-12T00:40:37.784Z,25.95
2022-09-12T00:43:40.219Z,26.85
2022-09-12T00:46:35.212Z,26.92
2022-09-12T00:49:31.745Z,27.23
2022-09-12T00:52:34.456Z,28.45
2022-09-12T00:55:24.087Z,28.50
2022-09-12T00:58:19.317Z,26.70
2022-09-12T01:03:52.063Z,27.52
2022-09-12T01:06:42.183Z,26.60
2022-09-12T01:09:28.058Z,25.73
2022-09-12T01:12:15.170Z,26.00
2022-09-12T01:15:00.988Z,28.50
2022-09-12T01:18:19.260Z,28.80
2022-09-12T01:21:49.840Z,27.50
2022-09-12T01:25:03.789Z,26.83
2022-09-12T01:27:58.079Z,30.02
2022-09-12T01:30:51.504Z,28.98
2022-09-12T01:33:41.632Z,29.45
2022-09-12T01:36:42.051Z,29.38
2022-09-12T01:39:38.947Z,29.08
2022-09-12T01:42:40.368Z,28.83
2022-09-12T01:45:38.260Z,28.65
2022-09-12T01:48:29.340Z,28.70
2022-09-12T01:51:29.942Z,29.52
2022-09-12T01:54:27.196Z,27.73
2022-09-12T01:57:25.680Z,28.52
2022-09-12T02:00:12.519Z,28.42
2022-09-12T02:03:24.198Z,29.08
2022-09-12T02:06:18.460Z,30.52
2022-09-12T02:09:10.715Z,30.35
2022-09-12T02:11:59.771Z,31.55
2022-09-12T02:14:55.306Z,33.25
2022-09-12T02:17:44.166Z,32.13
2022-09-12T02:20:47.900Z,31.52
2022-09-12T02:23:37.012Z,32.75
2022-09-12T02:26:32.202Z,31.67
2022-09-12T02:29:17.535Z,30.70
2022-09-12T02:32:28.223Z,31.20
2022-09-12T02:35:20.231Z,32.00
2022-09-12T02:38:24.072Z,31.25
2022-09-12T02:41:09.391Z,30.98
2022-09-12T02:43:55.335Z,30.48
2022-09-12T02:46:45.676Z,31.75
2022-09-12T02:49:31.039Z,31.90
2022-09-12T02:52:16.910Z,31.92
2022-09-12T02:55:05.053Z,32.70
2022-09-12T02:57:50.492Z,33.30
2022-09-12T03:01:01.177Z,33.97
2022-09-12T03:04:05.350Z,32.25
2022-09-12T03:07:19.924Z,33.25
2022-09-12T03:10:21.841Z,33.60
2022-09-12T03:13:23.119Z,32.58
2022-09-12T03:16:27.020Z,34.13
2022-09-12T03:19:41.933Z,31.60
2022-09-12T03:22:59.535Z,32.63
2022-09-12T03:25:52.849Z,32.55
2022-09-12T03:28:40.729Z,34.08
2022-09-12T03:31:26.327Z,32.45
2022-09-12T03:34:13.091Z,32.08
2022-09-12T03:36:58.281Z,31.45
2022-09-12T03:39:43.721Z,32.00
2022-09-12T03:42:29.218Z,32.00
2022-09-12T03:45:16.463Z,31.15
2022-09-12T03:48:02.120Z,32.20
2022-09-12T03:50:47.319Z,31.05
2022-09-12T03:53:33.025Z,31.30
2022-09-12T03:56:19.361Z,32.38
2022-09-12T03:59:06.833Z,32.25
2022-09-12T04:01:52.379Z,32.03
2022-09-12T04:04:37.963Z,32.90
2022-09-12T04:07:23.588Z,32.42
2022-09-12T04:10:12.503Z,32.00
2022-09-12T04:12:58.196Z,32.55
2022-09-12T04:15:43.529Z,33.35
2022-09-12T04:18:28.947Z,33.63
2022-09-12T04:21:17.509Z,32.05
2022-09-12T04:24:03.145Z,33.83
2022-09-12T04:26:48.536Z,36.33
2022-09-12T04:29:33.693Z,35.70
2022-09-12T04:32:20.130Z,34.50
2022-09-12T04:35:05.493Z,35.33
2022-09-12T04:37:51.110Z,36.10
2022-09-12T04:40:36.715Z,36.20
2022-09-12T04:43:22.053Z,36.05
2022-09-12T04:46:11.694Z,37.08
2022-09-12T04:48:57.321Z,37.03
2022-09-12T04:51:47.629Z,39.13
2022-09-12T04:54:33.579Z,37.55
2022-09-12T04:57:19.368Z,38.85
2022-09-12T05:00:07.290Z,38.75
2022-09-12T05:02:52.960Z,38.22
2022-09-12T05:05:38.119Z,38.53
2022-09-12T05:08:23.600Z,36.38
2022-09-12T05:11:15.173Z,41.17
2022-09-12T05:14:00.777Z,38.42
2022-09-12T05:16:49.360Z,39.88
2022-09-12T05:19:35.513Z,37.70
2022-09-12T05:22:20.760Z,37.50
2022-09-12T05:25:06.852Z,38.25
2022-09-12T05:27:55.472Z,39.72
2022-09-12T05:30:41.108Z,42.17
2022-09-12T05:33:26.570Z,42.42
2022-09-12T05:36:21.104Z,42.35
2022-09-12T05:39:06.813Z,41.83
2022-09-12T05:41:52.419Z,43.00
2022-09-12T05:44:40.546Z,42.30
2022-09-12T05:47:26.149Z,41.55
2022-09-12T05:50:12.380Z,43.08
2022-09-12T05:52:58.010Z,41.20
2022-09-12T05:55:43.420Z,40.25
2022-09-12T05:58:29.012Z,41.40
2022-09-12T06:01:16.710Z,41.03
2022-09-12T06:04:08.664Z,41.20
2022-09-12T06:06:54.306Z,41.50
2022-09-12T06:09:39.838Z,41.38
2022-09-12T06:12:29.095Z,40.53
2022-09-12T06:15:16.444Z,39.13
2022-09-12T06:18:02.186Z,40.80
2022-09-12T06:20:47.403Z,39.08
2022-09-12T06:23:36.757Z,38.60
2022-09-12T06:26:25.447Z,37.20
2022-09-12T06:29:11.796Z,37.97
2022-09-12T06:31:57.046Z,36.03
2022-09-12T06:34:42.879Z,35.97
2022-09-12T06:37:28.829Z,35.25
2022-09-12T06:40:14.197Z,34.15
2022-09-12T06:42:59.917Z,34.30
2022-09-12T06:45:51.439Z,33.60
2022-09-12T06:48:41.521Z,33.40
2022-09-12T06:51:28.241Z,33.55
2022-09-12T06:54:15.834Z,31.55
2022-09-12T06:57:02.033Z,33.53
2022-09-12T06:59:47.097Z,34.20
2022-09-12T07:02:32.354Z,33.85
2022-09-12T07:05:17.841Z,33.80
2022-09-12T07:08:04.056Z,32.83
2022-09-12T07:10:49.616Z,33.92
2022-09-12T07:13:34.797Z,32.67
2022-09-12T07:16:20.652Z,32.35
2022-09-12T07:19:08.303Z,33.25
2022-09-12T07:21:58.033Z,32.80
2022-09-12T07:24:46.012Z,34.47
2022-09-12T07:27:31.324Z,33.28
2022-09-12T07:30:17.887Z,33.00
2022-09-12T07:33:03.236Z,31.70
2022-09-12T07:35:50.427Z,31.13
2022-09-12T07:38:39.485Z,30.17
2022-09-12T07:41:27.492Z,31.77
2022-09-12T07:44:12.955Z,29.85
2022-09-12T07:46:58.710Z,31.67
2022-09-12T07:49:44.349Z,30.55
2022-09-12T07:52:29.819Z,30.10
2022-09-12T07:55:15.643Z,29.08
2022-09-12T07:58:01.110Z,30.27
2022-09-12T08:00:49.369Z,28.98
2022-09-12T08:03:37.646Z,30.20
2022-09-12T08:06:24.764Z,29.75
2022-09-12T08:09:12.428Z,29.50
2022-09-12T08:11:57.874Z,29.27
2022-09-12T08:14:46.154Z,29.08
2022-09-12T08:17:31.755Z,30.15
2022-09-12T08:20:18.058Z,29.52
2022-09-12T08:23:03.301Z,29.63
2022-09-12T08:25:50.003Z,29.67
2022-09-12T08:28:36.386Z,28.23
2022-09-12T08:31:24.151Z,26.77
2022-09-12T08:34:10.135Z,27.13
2022-09-12T08:36:55.172Z,26.13
2022-09-12T08:39:40.649Z,24.77
2022-09-12T08:43:02.115Z,25.25
2022-09-12T08:45:59.849Z,24.70
2022-09-12T08:48:49.795Z,22.15
2022-09-12T08:51:39.896Z,22.40
2022-09-12T08:54:28.517Z,20.15
2022-09-12T08:57:15.508Z,19.58
2022-09-12T09:00:04.340Z,18.75
2022-09-12T09:03:20.078Z,20.08
2022-09-12T09:06:21.931Z,19.98
2022-09-12T09:09:22.579Z,18.15
2022-09-12T09:12:31.937Z,17.90
2022-09-12T09:15:58.233Z,17.98
2022-09-12T09:18:47.400Z,17.17
2022-09-12T09:21:45.199Z,13.98
2022-09-12T09:24:41.332Z,13.68
2022-09-12T09:27:43.216Z,12.70
2022-09-12T09:30:29.867Z,10.23
2022-09-12T09:33:38.657Z,9.70
2022-09-12T09:36:44.169Z,10.23
2022-09-12T09:39:44.140Z,10.50
2022-09-12T09:42:50.209Z,9.68
2022-09-12T09:45:37.083Z,10.18
2022-09-12T09:48:35.440Z,10.60
2022-09-12T09:51:28.042Z,10.18
2022-09-12T09:54:25.739Z,10.88
2022-09-12T09:57:35.834Z,10.73
2022-09-12T10:00:41.677Z,10.88
2022-09-12T10:03:33.129Z,10.93
2022-09-12T10:06:34.030Z,8.95
2022-09-12T10:09:27.147Z,9.45
2022-09-12T10:12:28.546Z,9.85
2022-09-12T10:15:20.755Z,9.27
2022-09-12T10:18:06.889Z,6.93
2022-09-12T10:20:52.499Z,7.53
2022-09-12T10:23:41.129Z,8.00
2022-09-12T10:26:28.088Z,9.85
2022-09-12T10:29:22.626Z,9.30
2022-09-12T10:32:09.284Z,8.50
2022-09-12T10:34:58.980Z,7.03
2022-09-12T10:37:55.664Z,8.27
2022-09-12T10:40:44.615Z,6.70
2022-09-12T10:43:31.465Z,7.13
2022-09-12T10:46:19.799Z,6.07
2022-09-12T10:49:23.516Z,5.32
2022-09-12T10:52:21.822Z,5.70
2022-09-12T10:55:16.116Z,6.07
2022-09-12T10:58:17.275Z,5.35
2022-09-12T11:01:12.973Z,6.75
2022-09-12T11:04:36.045Z,6.82
2022-09-12T11:07:39.365Z,5.95
2022-09-12T11:10:24.499Z,7.50
2022-09-12T11:13:16.000Z,7.53
2022-09-12T11:16:01.322Z,6.43
2022-09-12T11:19:18.442Z,6.35
2022-09-12T11:22:18.306Z,7.32
2022-09-12T11:25:28.964Z,6.40
2022-09-12T11:28:29.735Z,6.88
2022-09-12T11:31:35.706Z,7.07
2022-09-12T11:34:44.755Z,6.78
2022-09-12T11:37:51.222Z,5.50
2022-09-12T11:40:54.470Z,5.35
2022-09-12T11:44:01.458Z,5.00
2022-09-12T11:46:51.179Z,5.28
2022-09-12T11:49:43.808Z,6.15
2022-09-12T11:52:35.627Z,5.60
2022-09-12T11:55:27.316Z,4.78
2022-09-12T11:58:13.193Z,5.25
2022-09-12T12:01:36.270Z,5.15
2022-09-12T12:04:32.375Z,4.85
2022-09-12T12:07:17.877Z,4.60
2022-09-12T12:10:05.365Z,4.20
2022-09-12T12:12:52.643Z,3.42
2022-09-12T12:15:39.266Z,4.57
2022-09-12T12:18:26.499Z,4.78
2022-09-12T12:21:36.782Z,4.60
2022-09-12T12:24:25.140Z,4.40
2022-09-12T12:27:47.194Z,5.40
2022-09-12T12:30:38.505Z,2.88
2022-09-12T12:33:26.910Z,2.83
2022-09-12T12:36:36.089Z,3.35
2022-09-12T12:39:33.575Z,3.75
2022-09-12T12:42:44.901Z,4.20
2022-09-12T12:45:30.162Z,3.65
2022-09-12T12:48:18.184Z,4.32
2022-09-12T12:51:36.101Z,3.72
2022-09-12T12:54:27.468Z,3.22
2022-09-12T12:57:52.259Z,3.72
2022-09-12T13:00:40.258Z,3.07
2022-09-12T13:03:31.138Z,3.53
2022-09-12T13:06:39.353Z,3.40
2022-09-12T13:09:33.571Z,2.60
2022-09-12T13:15:36.785Z,2.90
2022-09-12T13:18:28.455Z,2.75
2022-09-12T13:21:21.786Z,2.45
2022-09-12T13:24:16.163Z,2.70
2022-09-12T13:27:02.335Z,3.10
2022-09-12T13:29:47.978Z,2.83
2022-09-12T13:32:33.664Z,2.45
2022-09-12T13:35:41.627Z,2.85
2022-09-12T13:38:37.379Z,2.00
2022-09-12T13:42:00.135Z,2.63
2022-09-12T13:45:22.647Z,2.72
2022-09-12T13:48:16.691Z,2.55
2022-09-12T13:51:03.668Z,2.30
2022-09-12T13:53:50.796Z,2.10
2022-09-12T13:56:47.697Z,2.22
2022-09-12T13:59:40.437Z,2.40
2022-09-12T14:02:28.867Z,2.33
2022-09-12T14:05:21.221Z,1.95
2022-09-12T14:08:08.758Z,2.33
2022-09-12T14:10:54.904Z,2.20
2022-09-12T14:13:40.661Z,1.75
2022-09-12T14:16:28.996Z,1.95
2022-09-12T14:19:16.252Z,1.67
2022-09-12T14:22:02.198Z,1.52
2022-09-12T14:24:51.731Z,1.88
2022-09-12T14:27:47.834Z,1.80
2022-09-12T14:30:37.336Z,1.83
2022-09-12T14:33:22.940Z,2.38
2022-09-12T14:36:34.826Z,1.67
2022-09-12T14:39:26.410Z,1.75
2022-09-12T14:42:15.376Z,1.50
2022-09-12T14:45:03.576Z,1.60
2022-09-12T14:47:50.963Z,1.80
2022-09-12T14:50:36.496Z,1.90
2022-09-12T14:53:30.576Z,1.98
2022-09-12T14:56:16.655Z,2.10
2022-09-12T14:59:35.982Z,1.73
2022-09-12T15:02:23.178Z,1.90
2022-09-12T15:05:08.749Z,1.92
2022-09-12T15:07:55.974Z,1.73
2022-09-12T15:10:41.554Z,2.20
2022-09-12T15:13:28.653Z,1.77
2022-09-12T15:16:14.349Z,1.90
2022-09-12T15:18:59.607Z,2.05
2022-09-12T15:21:45.155Z,1.83
2022-09-12T15:24:30.535Z,2.03
2022-09-12T15:27:15.960Z,1.83
2022-09-12T15:30:01.457Z,1.85
2022-09-12T15:32:46.995Z,1.63
2022-09-12T15:35:33.284Z,2.30
2022-09-12T15:38:22.032Z,2.10
2022-09-12T15:41:20.435Z,2.33
2022-09-12T15:44:08.214Z,2.58
2022-09-12T15:46:54.115Z,2.10
2022-09-12T15:49:40.786Z,2.50
2022-09-12T15:52:26.092Z,2.05
2022-09-12T15:55:20.957Z,2.20
2022-09-12T15:58:07.473Z,2.03
2022-09-12T16:00:52.797Z,2.42
2022-09-12T16:03:38.196Z,2.40
2022-09-12T16:06:24.807Z,2.03
2022-09-12T16:09:14.795Z,2.30
2022-09-12T16:12:02.148Z,2.45
2022-09-12T16:14:47.620Z,2.78
2022-09-12T16:17:32.835Z,2.90
2022-09-12T16:20:19.674Z,3.10
2022-09-12T16:23:05.002Z,2.90
2022-09-12T16:25:58.399Z,2.70
2022-09-12T16:28:43.883Z,2.50
2022-09-12T16:31:33.610Z,3.60
2022-09-12T16:34:19.166Z,2.75
2022-09-12T16:37:05.543Z,2.70
2022-09-12T16:39:52.424Z,2.40
2022-09-12T16:42:43.092Z,2.47
2022-09-12T16:45:28.986Z,2.58
2022-09-12T16:48:14.522Z,2.60
2022-09-12T16:51:03.572Z,2.35
2022-09-12T16:53:49.310Z,3.00
2022-09-12T16:56:34.684Z,2.80
2022-09-12T17:01:41.472Z,3.28
2022-09-12T17:07:53.924Z,3.70
2022-09-12T17:10:41.219Z,3.72
2022-09-12T17:13:36.659Z,3.58
2022-09-12T17:16:35.131Z,4.05
2022-09-12T17:19:26.816Z,3.83
2022-09-12T17:22:12.131Z,3.85
2022-09-12T17:24:57.583Z,3.90
2022-09-12T17:27:42.980Z,4.30
2022-09-12T17:30:28.256Z,3.63
2022-09-12T17:33:14.663Z,3.40
2022-09-12T17:36:05.396Z,4.40
2022-09-12T17:38:51.710Z,4.18
2022-09-12T17:41:37.762Z,3.72
2022-09-12T17:44:24.271Z,3.50
2022-09-12T17:47:12.591Z,3.38
2022-09-12T17:50:14.546Z,4.03
2022-09-12T17:53:03.460Z,3.05
2022-09-12T17:55:52.569Z,4.38
2022-09-12T17:58:42.684Z,3.97
2022-09-12T18:01:48.206Z,4.28
2022-09-12T18:04:33.342Z,4.43
2022-09-12T18:07:22.155Z,3.83
2022-09-12T18:10:07.943Z,4.30
2022-09-12T18:12:53.327Z,4.47
2022-09-12T18:15:39.099Z,5.03
2022-09-12T18:18:24.412Z,4.65
2022-09-12T18:21:11.548Z,4.40
2022-09-12T18:24:00.003Z,4.28
2022-09-12T18:26:45.732Z,4.13
2022-09-12T18:29:32.822Z,3.40
2022-09-12T18:32:18.275Z,4.07
2022-09-12T18:35:04.039Z,4.10
2022-09-12T18:37:49.387Z,4.82
2022-09-12T18:40:34.900Z,4.72
2022-09-12T18:43:20.356Z,5.00
2022-09-12T18:46:07.576Z,5.35
2022-09-12T18:48:55.591Z,5.20
2022-09-12T18:51:41.946Z,5.10
2022-09-12T18:54:27.800Z,4.35
2022-09-12T18:57:12.991Z,4.82
2022-09-12T18:59:59.721Z,5.40
2022-09-12T19:02:45.255Z,4.82
2022-09-12T19:05:30.707Z,6.78
2022-09-12T19:08:16.189Z,8.35
2022-09-12T19:11:01.828Z,7.53
2022-09-12T19:13:49.520Z,6.43
2022-09-12T19:16:35.599Z,7.15
2022-09-12T19:19:21.293Z,8.45
2022-09-12T19:22:06.564Z,6.43
2022-09-12T19:24:54.879Z,7.72
2022-09-12T19:27:40.251Z,8.07
2022-09-12T19:30:25.552Z,7.35
2022-09-12T19:33:11.098Z,6.30
2022-09-12T19:35:56.428Z,6.00
2022-09-12T19:38:42.055Z,6.82
2022-09-12T19:41:30.179Z,6.40
2022-09-12T19:44:15.935Z,6.78
2022-09-12T19:47:01.120Z,6.78
2022-09-12T19:49:46.831Z,6.25
2022-09-12T19:52:32.220Z,6.90
2022-09-12T19:55:17.807Z,7.03
2022-09-12T19:58:06.065Z,6.43
2022-09-12T20:00:51.819Z,7.50
2022-09-12T20:03:37.367Z,7.80
2022-09-12T20:06:22.548Z,8.80
2022-09-12T20:09:07.835Z,7.90
2022-09-12T20:11:53.474Z,9.48
2022-09-12T20:14:38.691Z,11.20
2022-09-12T20:17:24.368Z,10.43
2022-09-12T20:20:10.580Z,8.40
2022-09-12T20:22:56.121Z,10.38
2022-09-12T20:25:42.153Z,10.32
2022-09-12T20:28:27.453Z,11.48
2022-09-12T20:31:15.089Z,11.77
2022-09-12T20:34:00.655Z,9.82
2022-09-12T20:36:47.130Z,13.70
2022-09-12T20:39:32.535Z,13.57
2022-09-12T20:42:17.916Z,13.88
2022-09-12T20:45:04.478Z,13.43
2022-09-12T20:47:50.001Z,13.93
2022-09-12T20:50:36.084Z,14.55
2022-09-12T20:53:21.228Z,14.52
2022-09-12T20:56:06.916Z,15.23
2022-09-12T20:58:52.775Z,15.18
2022-09-12T21:01:39.049Z,15.93
2022-09-12T21:04:25.379Z,15.40
2022-09-12T21:07:10.900Z,16.00
2022-09-12T21:09:56.524Z,15.32
2022-09-12T21:12:41.939Z,15.15
2022-09-12T21:15:27.611Z,16.70
2022-09-12T21:18:14.115Z,16.52
2022-09-12T21:20:59.431Z,15.73
2022-09-12T21:23:45.190Z,17.20
2022-09-12T21:26:30.881Z,17.35
2022-09-12T21:29:16.235Z,15.68
2022-09-12T21:32:07.551Z,15.38
2022-09-12T21:34:55.448Z,15.10
2022-09-12T21:37:41.094Z,15.10
2022-09-12T21:40:26.627Z,15.27
2022-09-12T21:43:13.318Z,13.93
2022-09-12T21:46:01.167Z,14.27
2022-09-12T21:48:49.329Z,13.77
2022-09-12T21:51:34.868Z,13.70
2022-09-12T21:54:20.141Z,14.13
2022-09-12T21:57:06.017Z,14.32
2022-09-12T21:59:51.443Z,13.65
2022-09-12T22:02:36.783Z,13.80
2022-09-12T22:05:24.588Z,14.05
2022-09-12T22:08:14.304Z,14.02
2022-09-12T22:11:07.864Z,13.60
2022-09-12T22:13:53.511Z,13.40
2022-09-12T22:16:40.629Z,12.48
2022-09-12T22:19:28.704Z,12.68
2022-09-12T22:22:32.935Z,13.85
2022-09-12T22:25:20.064Z,13.13
2022-09-12T22:28:05.395Z,13.48
2022-09-12T22:31:01.250Z,14.10
2022-09-12T22:33:47.015Z,13.40
2022-09-12T22:36:34.953Z,11.98
2022-09-12T22:39:24.299Z,13.77
2022-09-12T22:42:09.853Z,12.88
2022-09-12T22:44:55.776Z,14.07
2022-09-12T22:47:44.035Z,15.32
2022-09-12T22:50:29.337Z,15.27
2022-09-12T22:53:14.860Z,15.57
2022-09-12T22:56:00.647Z,15.23
2022-09-12T22:58:46.160Z,16.42
2022-09-12T23:01:31.843Z,16.70
2022-09-12T23:04:19.476Z,15.20
2022-09-12T23:07:05.495Z,15.13
2022-09-12T23:09:50.955Z,15.10
2022-09-12T23:12:36.554Z,15.05
2022-09-12T23:15:22.168Z,15.00
2022-09-12T23:18:08.366Z,14.50
2022-09-12T23:21:13.848Z,15.32
2022-09-12T23:23:59.751Z,15.60
2022-09-12T23:26:44.911Z,13.75
2022-09-12T23:29:34.436Z,13.57
2022-09-12T23:32:20.972Z,14.68
2022-09-12T23:35:09.195Z,14.20
2022-09-12T23:37:55.282Z,15.23
2022-09-12T23:40:40.845Z,15.07
2022-09-12T23:43:27.128Z,14.57
2022-09-12T23:46:14.176Z,13.68
2022-09-12T23:48:59.621Z,13.23
2022-09-12T23:51:45.064Z,14.80
2022-09-12T23:54:31.271Z,16.85
2022-09-12T23:57:19.483Z,17.95
